Terminal Aerodrome Forecast
Issued by NWS Sioux Falls, SD

Home | Current Version | Previous Version | Graphics & Text | Print | Product List | Glossary On
Versions: 1 2 3 4 5 6 7 8 9 10 11 12 13 14 15 16 17 18 19 20 21 22
000
FTUS43 KFSD 050520
TAFSUX
TAF
KSUX 050520Z 0506/0606 10007KT P6SM BKN070
      TEMPO 0506/0508 -SHRA BKN050
     FM051100 11007KT 6SM BR SCT015 SCT035 BKN200
     FM051500 14009KT P6SM SCT035 BKN200
     FM052100 16009KT P6SM SCT040 BKN200
     FM060100 12006KT P6SM FEW040 SCT200=

USA.gov is the U.S. government's official web portal to all federal, state and local government web resources and services.